Time;durP1;ratioP1;P1;durP2;ratioP2;P2;SDS_P1;SDS_P2;PMS_P1;PMS_P2;Temp;Humidity;BMP_temperature;BMP_pressure;BME280_temperature;BME280_humidity;BME280_pressure;Samples;Min_cycle;Max_cycle;Signal;HPM_P1;HPM_P2
2022/11/15 00:00:24;;;;;;;;;;;9.20;94.40;;;;;;5067981;28;20377;-76
2022/11/15 00:02:51;;;;;;;;;;;9.20;94.50;;;;;;5067890;28;19908;-76
2022/11/15 00:05:17;;;;;;;;;;;9.20;94.50;;;;;;5067538;28;19964;-76
2022/11/15 00:07:42;;;;;;;;;;;9.20;94.40;;;;;;5067915;28;20571;-77
2022/11/15 00:10:08;;;;;;;;;;;9.20;94.30;;;;;;5068221;28;19912;-76
2022/11/15 00:12:34;;;;;;;;;;;9.20;94.40;;;;;;5084234;28;20491;-76
2022/11/15 00:14:59;;;;;;;;;;;9.20;94.50;;;;;;5086199;28;19919;-76
2022/11/15 00:17:24;;;;;;;;;;;9.20;94.60;;;;;;5088206;28;19912;-76
2022/11/15 00:19:50;;;;;;;;;;;9.30;94.50;;;;;;5088117;28;19932;-76
2022/11/15 00:22:16;;;;;;;;;;;9.30;94.40;;;;;;5075816;28;19913;-76
2022/11/15 00:24:42;;;;;;;;;;;9.30;94.40;;;;;;5067686;28;20011;-76
2022/11/15 00:27:08;;;;;;;;;;;9.30;94.40;;;;;;5079856;28;19912;-76
2022/11/15 00:29:33;;;;;;;;;;;9.30;94.40;;;;;;5083992;28;20365;-76
2022/11/15 00:31:59;;;;;;;;;;;9.30;94.50;;;;;;5046990;28;20393;-76
2022/11/15 00:34:24;;;;;;;;;;;9.30;94.70;;;;;;5047460;28;19971;-76
2022/11/15 00:36:50;;;;;;;;;;;9.30;94.80;;;;;;5047173;28;19936;-76
2022/11/15 00:39:15;;;;;;;;;;;9.40;94.60;;;;;;5047062;28;19923;-76
2022/11/15 00:41:40;;;;;;;;;;;9.40;94.50;;;;;;5046867;28;19926;-76
2022/11/15 00:44:06;;;;;;;;;;;9.40;94.50;;;;;;5064622;28;19916;-76
2022/11/15 00:46:31;;;;;;;;;;;9.40;94.70;;;;;;5067549;28;20409;-76
2022/11/15 00:48:57;;;;;;;;;;;9.40;94.70;;;;;;5069201;28;19923;-76
2022/11/15 00:51:22;;;;;;;;;;;9.40;94.70;;;;;;5071824;28;19912;-76
2022/11/15 00:53:48;;;;;;;;;;;9.40;94.70;;;;;;5066793;28;20003;-76
2022/11/15 00:56:13;;;;;;;;;;;9.40;94.70;;;;;;5067187;28;19919;-76
2022/11/15 00:58:39;;;;;;;;;;;9.40;94.60;;;;;;5067025;28;20296;-76
2022/11/15 01:01:05;;;;;;;;;;;9.50;94.70;;;;;;5067856;28;19987;-76
2022/11/15 01:03:32;;;;;;;;;;;9.50;94.70;;;;;;5066891;28;19917;-76
2022/11/15 01:05:58;;;;;;;;;;;9.50;94.70;;;;;;5066507;28;19939;-76
2022/11/15 01:08:24;;;;;;;;;;;9.50;94.70;;;;;;5066909;28;19916;-76
2022/11/15 01:10:50;;;;;;;;;;;9.50;94.70;;;;;;5066694;28;19934;-76
2022/11/15 01:13:15;;;;;;;;;;;9.50;94.60;;;;;;5066982;28;19999;-76
2022/11/15 01:15:41;;;;;;;;;;;9.50;94.70;;;;;;5066068;28;20571;-76
2022/11/15 01:18:07;;;;;;;;;;;9.60;94.80;;;;;;5067642;28;20015;-77
2022/11/15 01:20:32;;;;;;;;;;;9.60;94.80;;;;;;5081961;28;20472;-76
2022/11/15 01:22:57;;;;;;;;;;;9.60;94.70;;;;;;5084661;28;19919;-76
2022/11/15 01:25:23;;;;;;;;;;;9.60;94.70;;;;;;5086934;28;19915;-76
2022/11/15 01:27:48;;;;;;;;;;;9.60;94.60;;;;;;5087356;28;19912;-76
2022/11/15 01:30:14;;;;;;;;;;;9.60;94.70;;;;;;5076995;28;19909;-76
2022/11/15 01:32:39;;;;;;;;;;;9.60;94.90;;;;;;5067041;28;19912;-76
2022/11/15 01:35:05;;;;;;;;;;;9.60;94.60;;;;;;5066233;28;19912;-75
2022/11/15 01:37:31;;;;;;;;;;;9.60;94.80;;;;;;5065752;28;20373;-76
2022/11/15 01:39:56;;;;;;;;;;;9.60;94.60;;;;;;5051461;28;19912;-76
2022/11/15 01:42:21;;;;;;;;;;;9.60;94.60;;;;;;5078128;28;19989;-76
2022/11/15 01:44:48;;;;;;;;;;;9.60;94.50;;;;;;5046136;28;20516;-76
2022/11/15 01:47:18;;;;;;;;;;;9.70;94.70;;;;;;5045979;28;19913;-76
2022/11/15 01:49:54;;;;;;;;;;;9.70;94.60;;;;;;5060748;28;19920;-76
2022/11/15 01:52:21;;;;;;;;;;;9.70;94.60;;;;;;5066171;28;19912;-76
2022/11/15 01:54:48;;;;;;;;;;;9.70;94.80;;;;;;5065659;28;19956;-76
2022/11/15 01:57:13;;;;;;;;;;;9.70;94.70;;;;;;5066038;28;19939;-76
2022/11/15 01:59:40;;;;;;;;;;;9.70;94.80;;;;;;5065805;28;19913;-77
2022/11/15 02:02:06;;;;;;;;;;;9.70;94.70;;;;;;5066154;28;19908;-76
2022/11/15 02:04:33;;;;;;;;;;;9.70;94.80;;;;;;5065921;28;19912;-76
2022/11/15 02:07:01;;;;;;;;;;;9.80;94.80;;;;;;5065617;28;19917;-76
2022/11/15 02:09:27;;;;;;;;;;;9.80;94.80;;;;;;5064204;28;20654;-76
2022/11/15 02:11:54;;;;;;;;;;;9.80;94.70;;;;;;5065271;28;20008;-76
2022/11/15 02:14:19;;;;;;;;;;;9.80;94.80;;;;;;5052163;28;19916;-76
2022/11/15 02:16:54;;;;;;;;;;;9.80;94.80;;;;;;5065876;28;20309;-76
2022/11/15 02:19:40;;;;;;;;;;;9.80;94.90;;;;;;5071080;28;20030;-76
2022/11/15 02:22:05;;;;;;;;;;;9.80;94.90;;;;;;5085477;28;20543;-76
2022/11/15 02:24:31;;;;;;;;;;;9.80;95.00;;;;;;5072337;28;19913;-76
2022/11/15 02:26:56;;;;;;;;;;;9.80;94.80;;;;;;5065112;28;20640;-76
2022/11/15 02:29:24;;;;;;;;;;;9.80;94.70;;;;;;5065082;28;19946;-76
2022/11/15 02:32:02;;;;;;;;;;;9.90;94.80;;;;;;5063407;28;20003;-76
2022/11/15 02:34:37;;;;;;;;;;;9.90;94.80;;;;;;5045653;28;20008;-76
2022/11/15 02:37:16;;;;;;;;;;;9.90;94.90;;;;;;5045182;28;20266;-76
2022/11/15 02:39:46;;;;;;;;;;;9.90;94.90;;;;;;5056858;28;20411;-76
2022/11/15 02:45:03;;;;;;;;;;;9.90;94.90;;;;;;5070101;28;19915;-76
2022/11/15 02:47:29;;;;;;;;;;;9.90;95.00;;;;;;5069290;28;20540;-76
2022/11/15 02:49:58;;;;;;;;;;;9.90;95.00;;;;;;5076975;28;19908;-76
2022/11/15 02:52:25;;;;;;;;;;;9.90;94.90;;;;;;5069586;28;19909;-76
2022/11/15 02:54:57;;;;;;;;;;;9.90;94.70;;;;;;5068847;28;19913;-76
2022/11/15 02:57:36;;;;;;;;;;;9.90;94.70;;;;;;5070295;28;20362;-77
2022/11/15 03:00:04;;;;;;;;;;;9.90;94.60;;;;;;5068551;28;20611;-76
2022/11/15 03:02:48;;;;;;;;;;;9.90;94.60;;;;;;5069305;28;20385;-76
2022/11/15 03:05:13;;;;;;;;;;;9.90;94.70;;;;;;5069013;28;19920;-76
2022/11/15 03:07:47;;;;;;;;;;;9.90;94.70;;;;;;5069091;28;20285;-76
2022/11/15 03:10:25;;;;;;;;;;;9.90;95.20;;;;;;5068434;28;19999;-77
2022/11/15 03:13:07;;;;;;;;;;;9.90;94.90;;;;;;5069063;28;19920;-76
2022/11/15 03:15:36;;;;;;;;;;;9.90;95.20;;;;;;5070181;28;19944;-76
2022/11/15 03:18:09;;;;;;;;;;;9.90;95.10;;;;;;5068388;28;20308;-76
2022/11/15 03:20:35;;;;;;;;;;;9.90;95.20;;;;;;5084818;28;19912;-76
2022/11/15 03:23:04;;;;;;;;;;;10.00;95.20;;;;;;5088791;28;19919;-76
2022/11/15 03:25:31;;;;;;;;;;;9.90;95.20;;;;;;5067922;28;19965;-77
2022/11/15 03:27:58;;;;;;;;;;;10.00;95.20;;;;;;5067989;28;20314;-77
2022/11/15 03:30:24;;;;;;;;;;;10.00;95.20;;;;;;5069924;28;20276;-76
2022/11/15 03:32:51;;;;;;;;;;;10.00;95.10;;;;;;5068427;28;19922;-76
2022/11/15 03:35:18;;;;;;;;;;;10.00;95.30;;;;;;5068197;28;19912;-77
2022/11/15 03:37:47;;;;;;;;;;;10.00;95.10;;;;;;5068348;28;19916;-76
2022/11/15 03:40:13;;;;;;;;;;;10.00;95.10;;;;;;5067904;28;19974;-77
2022/11/15 03:42:38;;;;;;;;;;;10.00;95.20;;;;;;5066913;28;19921;-76
2022/11/15 03:45:16;;;;;;;;;;;10.10;95.20;;;;;;5067923;28;19913;-76
2022/11/15 03:47:44;;;;;;;;;;;10.10;95.20;;;;;;5070012;28;20712;-77
2022/11/15 03:50:14;;;;;;;;;;;10.10;95.10;;;;;;5075128;28;19919;-77
2022/11/15 03:52:40;;;;;;;;;;;10.10;95.20;;;;;;5066666;28;20011;-77
2022/11/15 03:55:07;;;;;;;;;;;10.10;95.10;;;;;;5068213;28;19909;-77
2022/11/15 03:57:32;;;;;;;;;;;10.10;95.00;;;;;;5068048;28;19930;-76
2022/11/15 03:59:58;;;;;;;;;;;10.10;94.90;;;;;;5067915;28;19908;-76
2022/11/15 04:02:24;;;;;;;;;;;10.10;95.00;;;;;;5068263;28;19913;-76
2022/11/15 04:04:49;;;;;;;;;;;10.10;95.10;;;;;;5078160;28;20505;-77
2022/11/15 04:07:15;;;;;;;;;;;10.10;95.00;;;;;;5087998;28;20027;-76
2022/11/15 04:12:30;;;;;;;;;;;10.10;94.90;;;;;;5047198;28;19971;-76
2022/11/15 04:15:15;;;;;;;;;;;10.10;94.90;;;;;;5047266;28;20015;-76
2022/11/15 04:17:40;;;;;;;;;;;10.10;94.80;;;;;;5064291;28;19913;-76
2022/11/15 04:25:37;;;;;;;;;;;10.10;95.00;;;;;;5087810;28;19942;-76
2022/11/15 04:28:02;;;;;;;;;;;10.10;95.00;;;;;;5087869;28;19912;-77
2022/11/15 04:30:28;;;;;;;;;;;10.10;95.00;;;;;;5067434;28;20007;-76
2022/11/15 04:32:53;;;;;;;;;;;10.10;95.00;;;;;;5046886;28;20736;-76
2022/11/15 04:35:19;;;;;;;;;;;10.10;95.00;;;;;;5047262;28;19920;-76
2022/11/15 04:37:44;;;;;;;;;;;10.20;95.00;;;;;;5054176;28;20538;-77
2022/11/15 04:40:10;;;;;;;;;;;10.20;95.00;;;;;;5067048;28;19919;-77
2022/11/15 04:42:35;;;;;;;;;;;10.20;95.00;;;;;;5067304;28;19909;-76
2022/11/15 04:45:00;;;;;;;;;;;10.20;95.10;;;;;;5067165;28;19908;-76
2022/11/15 04:47:27;;;;;;;;;;;10.20;95.10;;;;;;5067174;28;19912;-76
2022/11/15 04:49:53;;;;;;;;;;;10.20;95.20;;;;;;5074044;28;20017;-76
2022/11/15 04:52:18;;;;;;;;;;;10.20;95.20;;;;;;5066996;28;19985;-76
2022/11/15 04:54:44;;;;;;;;;;;10.20;95.20;;;;;;5084369;28;19927;-76
2022/11/15 04:57:10;;;;;;;;;;;10.20;95.20;;;;;;5087555;28;19917;-76
2022/11/15 04:59:35;;;;;;;;;;;10.20;95.20;;;;;;5083598;28;19916;-76
2022/11/15 05:02:00;;;;;;;;;;;10.30;95.30;;;;;;5046594;28;19913;-76
2022/11/15 05:04:26;;;;;;;;;;;10.20;95.30;;;;;;5045519;28;19912;-76
2022/11/15 05:06:52;;;;;;;;;;;10.30;95.30;;;;;;5048018;28;19912;-77
2022/11/15 05:09:18;;;;;;;;;;;10.30;95.30;;;;;;5069553;28;19913;-76
2022/11/15 05:11:43;;;;;;;;;;;10.30;95.30;;;;;;5046231;28;19921;-76
2022/11/15 05:14:09;;;;;;;;;;;10.30;95.30;;;;;;5046438;28;19913;-77
2022/11/15 05:16:35;;;;;;;;;;;10.30;95.30;;;;;;5046645;28;19919;-76
2022/11/15 05:19:00;;;;;;;;;;;10.30;95.30;;;;;;5046334;28;19917;-76
2022/11/15 05:21:26;;;;;;;;;;;10.30;95.30;;;;;;5045549;28;20541;-76
2022/11/15 05:23:51;;;;;;;;;;;10.30;95.30;;;;;;5052648;28;20022;-76
2022/11/15 05:26:17;;;;;;;;;;;10.30;95.20;;;;;;5066341;28;19923;-77
2022/11/15 05:28:43;;;;;;;;;;;10.30;95.50;;;;;;5066213;28;19913;-76
2022/11/15 05:31:13;;;;;;;;;;;10.30;95.30;;;;;;5065685;28;19909;-76
2022/11/15 05:33:40;;;;;;;;;;;10.30;95.20;;;;;;5064427;28;19912;-76
2022/11/15 05:36:05;;;;;;;;;;;10.30;95.20;;;;;;5065992;28;19912;-77
2022/11/15 05:38:31;;;;;;;;;;;10.30;95.30;;;;;;5064975;28;19927;-76
2022/11/15 05:40:56;;;;;;;;;;;10.30;95.30;;;;;;5073032;28;19928;-76
2022/11/15 05:43:22;;;;;;;;;;;10.40;95.30;;;;;;5085656;28;19993;-76
2022/11/15 05:45:48;;;;;;;;;;;10.30;95.30;;;;;;5086065;28;19912;-76
2022/11/15 05:48:14;;;;;;;;;;;10.30;95.30;;;;;;5086087;28;20534;-76
2022/11/15 05:50:43;;;;;;;;;;;10.40;95.30;;;;;;5076857;28;19948;-76
2022/11/15 05:53:09;;;;;;;;;;;10.40;95.30;;;;;;5066053;28;20292;-77
2022/11/15 05:55:37;;;;;;;;;;;10.40;95.20;;;;;;5065752;28;19933;-76
2022/11/15 05:58:02;;;;;;;;;;;10.40;95.30;;;;;;5076120;28;19920;-76
2022/11/15 06:00:28;;;;;;;;;;;10.40;95.40;;;;;;5066270;28;19966;-76
2022/11/15 06:02:53;;;;;;;;;;;10.40;95.30;;;;;;5089047;28;19917;-76
2022/11/15 06:05:19;;;;;;;;;;;10.40;95.30;;;;;;5065050;28;19913;-76
2022/11/15 06:07:44;;;;;;;;;;;10.40;95.30;;;;;;5064917;28;20311;-76
2022/11/15 06:10:10;;;;;;;;;;;10.40;95.40;;;;;;5064598;28;19908;-75
2022/11/15 06:12:35;;;;;;;;;;;10.40;95.40;;;;;;5065167;28;20603;-76
2022/11/15 06:15:01;;;;;;;;;;;10.40;95.40;;;;;;5066562;28;19921;-77
2022/11/15 06:17:26;;;;;;;;;;;10.40;95.40;;;;;;5060658;28;19925;-76
2022/11/15 06:19:52;;;;;;;;;;;10.40;95.40;;;;;;5061373;28;19922;-76
2022/11/15 06:22:17;;;;;;;;;;;10.40;95.30;;;;;;5064771;28;19912;-76
2022/11/15 06:24:43;;;;;;;;;;;10.40;95.40;;;;;;5064726;28;19920;-77
2022/11/15 06:27:10;;;;;;;;;;;10.40;95.40;;;;;;5064978;28;20380;-76
2022/11/15 06:29:35;;;;;;;;;;;10.40;95.40;;;;;;5065105;28;19909;-76
2022/11/15 06:32:01;;;;;;;;;;;10.50;95.50;;;;;;5065443;28;19978;-77
2022/11/15 06:34:26;;;;;;;;;;;10.50;95.50;;;;;;5061998;28;20428;-76
2022/11/15 06:36:52;;;;;;;;;;;10.50;95.60;;;;;;5065088;28;19913;-76
2022/11/15 06:39:17;;;;;;;;;;;10.50;95.50;;;;;;5063615;28;20436;-76
2022/11/15 06:41:43;;;;;;;;;;;10.50;95.50;;;;;;5064178;28;19912;-77
2022/11/15 06:44:09;;;;;;;;;;;10.50;95.60;;;;;;5064596;28;20720;-76
2022/11/15 06:46:34;;;;;;;;;;;10.50;95.80;;;;;;5064981;28;19912;-77
2022/11/15 06:48:59;;;;;;;;;;;10.50;95.60;;;;;;5068001;28;20032;-76
2022/11/15 06:51:25;;;;;;;;;;;10.50;95.70;;;;;;5069482;28;19912;-76
2022/11/15 06:53:50;;;;;;;;;;;10.50;95.60;;;;;;5064161;28;20003;-76
2022/11/15 06:56:16;;;;;;;;;;;10.50;95.70;;;;;;5064849;28;19913;-76
2022/11/15 06:58:41;;;;;;;;;;;10.50;95.70;;;;;;5064728;28;20392;-76
2022/11/15 07:01:09;;;;;;;;;;;10.50;95.70;;;;;;5058624;28;19924;-76
2022/11/15 07:03:35;;;;;;;;;;;10.50;95.70;;;;;;5063488;28;19912;-76
2022/11/15 07:06:01;;;;;;;;;;;10.60;95.70;;;;;;5064157;28;20422;-76
2022/11/15 07:08:28;;;;;;;;;;;10.50;95.60;;;;;;5064856;28;19916;-76
2022/11/15 07:10:53;;;;;;;;;;;10.60;95.60;;;;;;5072067;28;19913;-77
2022/11/15 07:13:19;;;;;;;;;;;10.60;95.90;;;;;;5085586;28;19935;-76
2022/11/15 07:15:44;;;;;;;;;;;10.60;95.80;;;;;;5084543;28;19912;-76
2022/11/15 07:18:10;;;;;;;;;;;10.60;95.80;;;;;;5079225;28;20300;-75
2022/11/15 07:20:35;;;;;;;;;;;10.60;95.80;;;;;;5080612;28;19918;-75
2022/11/15 07:23:04;;;;;;;;;;;10.60;95.80;;;;;;5084398;28;19916;-75
2022/11/15 07:25:30;;;;;;;;;;;10.60;95.80;;;;;;5085065;28;20510;-76
2022/11/15 07:27:56;;;;;;;;;;;10.60;95.70;;;;;;5086644;28;19916;-75
2022/11/15 07:30:21;;;;;;;;;;;10.60;95.70;;;;;;5074591;28;20565;-76
2022/11/15 07:32:47;;;;;;;;;;;10.60;95.70;;;;;;5068097;28;19917;-76
2022/11/15 07:35:12;;;;;;;;;;;10.60;95.70;;;;;;5068144;28;19998;-76
2022/11/15 07:37:38;;;;;;;;;;;10.60;95.60;;;;;;5067023;28;19913;-76
2022/11/15 07:40:04;;;;;;;;;;;10.60;95.60;;;;;;5065683;28;20015;-76
2022/11/15 07:45:15;;;;;;;;;;;10.60;95.60;;;;;;5083504;28;19918;-75
2022/11/15 07:47:40;;;;;;;;;;;10.60;95.50;;;;;;5069987;28;19916;-76
2022/11/15 07:50:06;;;;;;;;;;;10.60;95.40;;;;;;5075963;28;19913;-76
2022/11/15 07:52:31;;;;;;;;;;;10.60;95.40;;;;;;5067987;28;19944;-76
2022/11/15 07:54:57;;;;;;;;;;;10.60;95.50;;;;;;5067947;28;20661;-76
2022/11/15 07:57:22;;;;;;;;;;;10.60;95.50;;;;;;5067607;28;19912;-75
2022/11/15 07:59:48;;;;;;;;;;;10.60;95.50;;;;;;5064149;28;20392;-76
2022/11/15 08:02:16;;;;;;;;;;;10.60;95.40;;;;;;5064733;28;19924;-76
2022/11/15 08:04:41;;;;;;;;;;;10.60;95.70;;;;;;5066408;28;19991;-76
2022/11/15 08:07:06;;;;;;;;;;;10.60;95.40;;;;;;5068030;28;20007;-75
2022/11/15 08:09:32;;;;;;;;;;;10.60;95.30;;;;;;5067253;28;19917;-75
2022/11/15 08:11:57;;;;;;;;;;;10.60;95.30;;;;;;5065835;28;19920;-75
2022/11/15 08:14:23;;;;;;;;;;;10.60;95.30;;;;;;5068666;28;19912;-75
2022/11/15 08:16:48;;;;;;;;;;;10.60;95.30;;;;;;5087554;28;20556;-76
2022/11/15 08:19:14;;;;;;;;;;;10.60;95.30;;;;;;5087458;28;19916;-76
2022/11/15 08:21:39;;;;;;;;;;;10.60;95.30;;;;;;5087178;28;19951;-76
2022/11/15 08:24:05;;;;;;;;;;;10.60;95.30;;;;;;5086578;28;19912;-76
2022/11/15 08:26:31;;;;;;;;;;;10.60;95.30;;;;;;5087954;28;19912;-76
2022/11/15 08:28:56;;;;;;;;;;;10.60;95.40;;;;;;5087994;28;19915;-76
2022/11/15 08:31:22;;;;;;;;;;;10.60;95.30;;;;;;5071783;28;19916;-76
2022/11/15 08:33:47;;;;;;;;;;;10.60;95.40;;;;;;5067159;28;19952;-76
2022/11/15 08:36:14;;;;;;;;;;;10.70;95.50;;;;;;5066882;28;19966;-75
2022/11/15 08:38:40;;;;;;;;;;;10.70;95.70;;;;;;5066877;28;20018;-76
2022/11/15 08:41:06;;;;;;;;;;;10.70;95.60;;;;;;5066782;28;19918;-76
2022/11/15 08:43:31;;;;;;;;;;;10.70;95.50;;;;;;5066927;28;19919;-76
2022/11/15 08:45:57;;;;;;;;;;;10.70;95.50;;;;;;5066982;28;20306;-77
2022/11/15 08:48:22;;;;;;;;;;;10.70;95.60;;;;;;5068711;28;19916;-76
2022/11/15 08:50:48;;;;;;;;;;;10.70;95.70;;;;;;5074471;28;19939;-75
2022/11/15 08:53:13;;;;;;;;;;;10.70;95.60;;;;;;5066350;28;19919;-75
2022/11/15 08:55:40;;;;;;;;;;;10.70;95.60;;;;;;5066343;28;19998;-76
2022/11/15 08:58:05;;;;;;;;;;;10.70;95.60;;;;;;5066931;28;19922;-75
2022/11/15 09:00:31;;;;;;;;;;;10.80;95.70;;;;;;5066670;28;20289;-76
2022/11/15 09:02:56;;;;;;;;;;;10.80;95.70;;;;;;5068010;28;19923;-76
2022/11/15 09:05:22;;;;;;;;;;;10.80;95.60;;;;;;5065403;28;20399;-76
2022/11/15 09:07:52;;;;;;;;;;;10.80;95.70;;;;;;5066428;28;19913;-76
2022/11/15 09:10:17;;;;;;;;;;;10.80;95.60;;;;;;5074087;28;19959;-76
2022/11/15 09:12:43;;;;;;;;;;;10.80;95.60;;;;;;5081572;28;20533;-75
2022/11/15 09:15:08;;;;;;;;;;;10.80;95.70;;;;;;5086246;28;19916;-76
2022/11/15 09:17:34;;;;;;;;;;;10.80;95.60;;;;;;5086323;28;19939;-76
2022/11/15 09:19:59;;;;;;;;;;;10.80;95.90;;;;;;5085961;28;19912;-76
2022/11/15 09:22:25;;;;;;;;;;;10.90;95.70;;;;;;5085294;28;19990;-75
2022/11/15 09:24:50;;;;;;;;;;;10.90;95.50;;;;;;5074011;28;19920;-76
2022/11/15 09:27:16;;;;;;;;;;;10.90;95.60;;;;;;5065254;28;19944;-76
2022/11/15 09:29:41;;;;;;;;;;;10.90;95.50;;;;;;5064996;28;19919;-76
2022/11/15 09:32:07;;;;;;;;;;;10.90;95.60;;;;;;5066410;28;19916;-75
2022/11/15 09:34:32;;;;;;;;;;;10.90;95.60;;;;;;5065108;28;20364;-75
2022/11/15 09:36:58;;;;;;;;;;;10.90;95.50;;;;;;5065286;28;19913;-76
2022/11/15 09:39:23;;;;;;;;;;;10.90;95.40;;;;;;5063384;28;19924;-76
2022/11/15 09:42:09;;;;;;;;;;;11.00;95.60;;;;;;5065505;28;19913;-75
2022/11/15 09:44:37;;;;;;;;;;;11.00;95.60;;;;;;5065500;28;20525;-76
2022/11/15 09:47:25;;;;;;;;;;;11.00;95.50;;;;;;5065265;28;19931;-76
2022/11/15 09:49:53;;;;;;;;;;;11.00;95.50;;;;;;5073860;28;19916;-75
2022/11/15 09:52:19;;;;;;;;;;;11.00;95.50;;;;;;5065324;28;19913;-76
2022/11/15 09:54:47;;;;;;;;;;;11.00;95.50;;;;;;5065280;28;19995;-76
2022/11/15 09:57:15;;;;;;;;;;;11.10;95.40;;;;;;5065560;28;20601;-76
2022/11/15 09:59:44;;;;;;;;;;;11.10;95.40;;;;;;5064933;28;19916;-76
2022/11/15 10:02:28;;;;;;;;;;;11.10;95.30;;;;;;5065240;28;19913;-76
2022/11/15 10:04:53;;;;;;;;;;;11.10;95.20;;;;;;5064682;28;20504;-76
2022/11/15 10:07:27;;;;;;;;;;;11.10;95.20;;;;;;5081611;28;20007;-76
2022/11/15 10:09:56;;;;;;;;;;;11.20;95.20;;;;;;5057480;28;19917;-76
2022/11/15 10:12:22;;;;;;;;;;;11.20;95.10;;;;;;5056467;28;19920;-76
2022/11/15 10:14:49;;;;;;;;;;;11.20;95.10;;;;;;5064817;28;19935;-76
2022/11/15 10:17:15;;;;;;;;;;;11.20;95.10;;;;;;5064629;28;19958;-75
2022/11/15 10:19:55;;;;;;;;;;;11.30;95.10;;;;;;5072849;28;19916;-76
2022/11/15 10:22:30;;;;;;;;;;;11.20;95.10;;;;;;5083476;28;19916;-75
2022/11/15 10:25:15;;;;;;;;;;;11.20;95.00;;;;;;5084661;28;19918;-75
2022/11/15 10:27:41;;;;;;;;;;;11.30;95.00;;;;;;5084807;28;19969;-76
2022/11/15 10:30:11;;;;;;;;;;;11.30;95.00;;;;;;5071768;28;19924;-75
2022/11/15 10:32:37;;;;;;;;;;;11.30;94.90;;;;;;5044543;28;19993;-75
2022/11/15 10:35:16;;;;;;;;;;;11.30;95.00;;;;;;5044710;28;19913;-76
2022/11/15 10:37:41;;;;;;;;;;;11.30;95.00;;;;;;5044364;28;19913;-76
2022/11/15 10:40:23;;;;;;;;;;;11.30;95.00;;;;;;5064409;28;19928;-75
2022/11/15 10:43:03;;;;;;;;;;;11.30;95.00;;;;;;5064696;28;19909;-75
2022/11/15 10:45:30;;;;;;;;;;;11.30;95.00;;;;;;5064487;28;19912;-76
2022/11/15 10:48:14;;;;;;;;;;;11.40;95.00;;;;;;5064710;28;19920;-75
2022/11/15 10:50:43;;;;;;;;;;;11.40;95.00;;;;;;5072281;28;20620;-75
2022/11/15 10:53:19;;;;;;;;;;;11.40;94.90;;;;;;5064499;28;20508;-76
2022/11/15 10:55:49;;;;;;;;;;;11.40;94.90;;;;;;5065207;28;19966;-76
2022/11/15 10:58:34;;;;;;;;;;;11.40;94.80;;;;;;5064273;28;20385;-76
2022/11/15 11:01:32;;;;;;;;;;;11.40;94.90;;;;;;5054597;28;19951;-76
2022/11/15 11:04:05;;;;;;;;;;;11.40;94.90;;;;;;5058710;28;19916;-76
2022/11/15 11:06:45;;;;;;;;;;;11.40;94.80;;;;;;5067930;28;19917;-76
2022/11/15 11:09:21;;;;;;;;;;;11.50;94.90;;;;;;5068091;28;19913;-76
2022/11/15 11:11:48;;;;;;;;;;;11.50;94.80;;;;;;5067006;28;19931;-75
2022/11/15 11:14:23;;;;;;;;;;;11.50;94.80;;;;;;5067717;28;19955;-76
2022/11/15 11:17:00;;;;;;;;;;;11.50;94.60;;;;;;5067784;28;19924;-75
2022/11/15 11:19:29;;;;;;;;;;;11.60;94.80;;;;;;5066133;28;19916;-76
2022/11/15 11:22:01;;;;;;;;;;;11.60;94.70;;;;;;5067485;28;19916;-76
2022/11/15 11:24:26;;;;;;;;;;;11.60;94.60;;;;;;5067803;28;19912;-76
2022/11/15 11:27:04;;;;;;;;;;;11.60;94.70;;;;;;5066876;28;20274;-75
2022/11/15 11:29:32;;;;;;;;;;;11.60;94.80;;;;;;5064487;28;20002;-76
2022/11/15 11:32:04;;;;;;;;;;;11.60;94.70;;;;;;5067248;28;19912;-76
2022/11/15 11:34:35;;;;;;;;;;;11.60;94.70;;;;;;5067735;28;19913;-76
2022/11/15 11:37:09;;;;;;;;;;;11.60;94.70;;;;;;5067872;28;19908;-76
2022/11/15 11:39:37;;;;;;;;;;;11.60;94.70;;;;;;5067780;28;19917;-76
2022/11/15 11:42:21;;;;;;;;;;;11.70;94.70;;;;;;5067780;28;19943;-76
2022/11/15 11:44:46;;;;;;;;;;;11.70;94.60;;;;;;5067642;28;19926;-76
2022/11/15 11:47:18;;;;;;;;;;;11.70;95.00;;;;;;5078169;28;19917;-76
2022/11/15 11:49:46;;;;;;;;;;;11.70;94.60;;;;;;5075096;28;19916;-75
2022/11/15 11:52:33;;;;;;;;;;;11.70;94.70;;;;;;5067258;28;19915;-76
2022/11/15 11:55:10;;;;;;;;;;;11.70;94.60;;;;;;5067388;28;19920;-76
2022/11/15 11:57:45;;;;;;;;;;;11.80;94.60;;;;;;5066716;28;19923;-76
2022/11/15 12:00:19;;;;;;;;;;;11.80;94.50;;;;;;5065835;28;19935;-76
2022/11/15 12:02:50;;;;;;;;;;;11.80;94.60;;;;;;5068043;28;19917;-76
2022/11/15 12:05:15;;;;;;;;;;;11.80;94.50;;;;;;5064328;28;20061;-76
2022/11/15 12:07:41;;;;;;;;;;;11.80;94.40;;;;;;5066847;28;19999;-76
2022/11/15 12:10:07;;;;;;;;;;;11.80;94.50;;;;;;5066321;28;19920;-76
2022/11/15 12:12:47;;;;;;;;;;;11.80;94.60;;;;;;5066006;28;19944;-76
2022/11/15 12:15:16;;;;;;;;;;;11.80;94.40;;;;;;5066606;28;19998;-76
2022/11/15 12:17:41;;;;;;;;;;;11.80;94.40;;;;;;5065491;28;19998;-76
2022/11/15 12:20:18;;;;;;;;;;;11.80;94.30;;;;;;5067445;28;20008;-75
2022/11/15 12:22:43;;;;;;;;;;;11.80;94.30;;;;;;5064418;28;20750;-76
2022/11/15 12:25:18;;;;;;;;;;;11.80;94.30;;;;;;5066187;28;19999;-76
2022/11/15 12:27:46;;;;;;;;;;;11.90;94.30;;;;;;5066897;28;19917;-76
2022/11/15 12:30:16;;;;;;;;;;;11.80;94.30;;;;;;5059467;28;19913;-76
2022/11/15 12:33:08;;;;;;;;;;;11.90;94.40;;;;;;5046584;28;19925;-75
2022/11/15 12:35:35;;;;;;;;;;;11.90;94.40;;;;;;5067465;28;19920;-76
2022/11/15 12:38:01;;;;;;;;;;;11.90;94.40;;;;;;5066189;28;19917;-75
2022/11/15 12:40:27;;;;;;;;;;;11.90;94.40;;;;;;5065646;28;19920;-76
2022/11/15 12:43:00;;;;;;;;;;;11.90;94.40;;;;;;5064405;28;19966;-75
2022/11/15 12:45:30;;;;;;;;;;;11.90;94.40;;;;;;5066183;28;19913;-76
2022/11/15 12:48:15;;;;;;;;;;;11.90;94.40;;;;;;5065870;28;19912;-76
2022/11/15 12:50:50;;;;;;;;;;;11.90;94.30;;;;;;5064984;28;20273;-76
2022/11/15 12:53:36;;;;;;;;;;;11.90;94.20;;;;;;5064751;28;19912;-76
2022/11/15 12:56:04;;;;;;;;;;;11.90;94.30;;;;;;5065282;28;19912;-76
2022/11/15 12:58:46;;;;;;;;;;;12.00;94.40;;;;;;5047299;28;20027;-75
2022/11/15 13:01:30;;;;;;;;;;;12.00;94.30;;;;;;5062783;28;20361;-76
2022/11/15 13:04:15;;;;;;;;;;;12.00;94.20;;;;;;5065436;28;19909;-76
2022/11/15 13:06:44;;;;;;;;;;;12.00;94.40;;;;;;5074295;28;19966;-76
2022/11/15 13:09:28;;;;;;;;;;;12.00;94.50;;;;;;5071206;28;20011;-76
2022/11/15 13:11:54;;;;;;;;;;;12.00;94.50;;;;;;5054763;28;19959;-76
2022/11/15 13:14:39;;;;;;;;;;;12.00;94.50;;;;;;5066574;28;20090;-76
2022/11/15 13:17:17;;;;;;;;;;;12.00;94.40;;;;;;5065873;28;19928;-75
2022/11/15 13:19:43;;;;;;;;;;;12.00;94.50;;;;;;5073966;28;19916;-75
2022/11/15 13:24:55;;;;;;;;;;;12.00;94.50;;;;;;5085299;28;19950;-75
2022/11/15 13:27:20;;;;;;;;;;;12.10;94.50;;;;;;5086007;28;19912;-75
2022/11/15 13:29:46;;;;;;;;;;;12.10;94.50;;;;;;5079043;28;19908;-76
2022/11/15 13:32:15;;;;;;;;;;;12.00;94.40;;;;;;5046296;28;19909;-75
2022/11/15 13:34:46;;;;;;;;;;;12.00;94.50;;;;;;5061396;28;19919;-75
2022/11/15 13:37:33;;;;;;;;;;;12.10;94.60;;;;;;5067258;28;19920;-75
2022/11/15 13:40:31;;;;;;;;;;;12.00;94.40;;;;;;5065464;28;19963;-75
2022/11/15 13:42:57;;;;;;;;;;;12.00;94.50;;;;;;5074912;28;19912;-75
2022/11/15 13:45:23;;;;;;;;;;;12.10;94.40;;;;;;5065287;28;19923;-75
2022/11/15 13:47:54;;;;;;;;;;;12.00;94.40;;;;;;5065232;28;20398;-76
2022/11/15 13:50:21;;;;;;;;;;;12.10;94.40;;;;;;5066840;28;19999;-76
2022/11/15 13:52:48;;;;;;;;;;;12.10;94.40;;;;;;5065705;28;20016;-76
2022/11/15 13:55:16;;;;;;;;;;;12.10;94.40;;;;;;5064316;28;19912;-76
2022/11/15 13:57:44;;;;;;;;;;;12.10;94.40;;;;;;5063826;28;19966;-75
2022/11/15 14:00:28;;;;;;;;;;;12.10;94.30;;;;;;5065220;28;19913;-75
2022/11/15 14:02:55;;;;;;;;;;;12.10;94.40;;;;;;5063254;28;19999;-76
2022/11/15 14:05:21;;;;;;;;;;;12.00;94.30;;;;;;5064556;28;19920;-75
2022/11/15 14:07:57;;;;;;;;;;;12.10;94.30;;;;;;5065412;28;19927;-75
2022/11/15 14:10:30;;;;;;;;;;;12.10;94.50;;;;;;5060521;28;19967;-75
2022/11/15 14:12:56;;;;;;;;;;;12.10;94.40;;;;;;5065734;28;19950;-76
2022/11/15 14:15:27;;;;;;;;;;;12.10;94.40;;;;;;5065200;28;19912;-75
2022/11/15 14:17:53;;;;;;;;;;;12.10;94.40;;;;;;5065560;28;19916;-76
2022/11/15 14:20:30;;;;;;;;;;;12.10;94.40;;;;;;5078867;28;19946;-75
2022/11/15 14:23:00;;;;;;;;;;;12.10;94.30;;;;;;5050650;28;19920;-75
2022/11/15 14:25:27;;;;;;;;;;;12.10;94.40;;;;;;5045281;28;19967;-75
2022/11/15 14:28:12;;;;;;;;;;;12.10;94.40;;;;;;5062386;28;19931;-76
2022/11/15 14:30:39;;;;;;;;;;;12.10;94.30;;;;;;5064877;28;19981;-76
2022/11/15 14:33:18;;;;;;;;;;;12.10;94.40;;;;;;5063592;28;19913;-75
2022/11/15 14:35:44;;;;;;;;;;;12.10;94.40;;;;;;5064259;28;20007;-75
2022/11/15 14:38:09;;;;;;;;;;;12.10;94.40;;;;;;5067988;28;20020;-75
2022/11/15 14:40:35;;;;;;;;;;;12.00;94.40;;;;;;5066575;28;19909;-75
2022/11/15 14:43:00;;;;;;;;;;;12.00;94.40;;;;;;5069390;28;19923;-75
2022/11/15 14:45:26;;;;;;;;;;;12.10;94.50;;;;;;5068071;28;19916;-75